createdAt,value
2023-02-06T00:01:25.348Z,41.30
2023-02-06T00:03:52.358Z,44.10
2023-02-06T00:06:19.255Z,44.30
2023-02-06T00:08:46.215Z,43.00
2023-02-06T00:11:16.871Z,42.30
2023-02-06T00:13:44.362Z,42.50
2023-02-06T00:16:18.860Z,43.20
2023-02-06T00:18:46.009Z,42.10
2023-02-06T00:21:13.216Z,41.80
2023-02-06T00:23:40.891Z,43.60
2023-02-06T00:26:08.727Z,40.90
2023-02-06T00:28:37.048Z,41.40
2023-02-06T00:31:05.689Z,40.40
2023-02-06T00:33:32.970Z,40.10
2023-02-06T00:35:59.945Z,42.10
2023-02-06T00:38:28.795Z,40.70
2023-02-06T00:40:56.381Z,41.20
2023-02-06T00:43:23.637Z,44.00
2023-02-06T00:45:55.758Z,42.20
2023-02-06T00:48:22.554Z,40.30
2023-02-06T00:50:50.819Z,42.80
2023-02-06T00:53:18.103Z,43.40
2023-02-06T00:55:45.257Z,42.50
2023-02-06T00:58:12.461Z,44.60
2023-02-06T01:00:41.813Z,43.40
2023-02-06T01:03:08.604Z,46.70
2023-02-06T01:05:36.754Z,43.40
2023-02-06T01:08:04.844Z,44.20
2023-02-06T01:10:31.809Z,44.50
2023-02-06T01:12:59.046Z,45.40
2023-02-06T01:15:25.935Z,46.10
2023-02-06T01:17:53.224Z,45.80
2023-02-06T01:20:21.655Z,46.30
2023-02-06T01:22:48.546Z,46.30
2023-02-06T01:25:15.409Z,47.20
2023-02-06T01:27:42.383Z,48.80
2023-02-06T01:30:11.658Z,48.80
2023-02-06T01:32:40.511Z,49.50
2023-02-06T01:35:09.284Z,47.10
2023-02-06T01:37:36.321Z,48.10
2023-02-06T01:40:03.385Z,46.80
2023-02-06T01:42:30.736Z,47.30
2023-02-06T01:45:34.052Z,45.80
2023-02-06T01:48:04.464Z,45.30
2023-02-06T01:50:33.866Z,47.80
2023-02-06T01:53:01.670Z,49.20
2023-02-06T01:55:29.423Z,49.70
2023-02-06T01:57:58.707Z,49.10
2023-02-06T02:00:25.900Z,47.80
2023-02-06T02:02:52.847Z,49.80
2023-02-06T02:05:22.545Z,48.80
2023-02-06T02:08:00.972Z,51.40
2023-02-06T02:10:28.568Z,51.20
2023-02-06T02:12:56.056Z,49.20
2023-02-06T02:15:26.236Z,50.50
2023-02-06T02:18:03.622Z,49.60
2023-02-06T02:20:50.320Z,50.10
2023-02-06T02:26:35.154Z,48.70
2023-02-06T02:29:24.707Z,49.50
2023-02-06T02:32:10.164Z,47.90
2023-02-06T02:34:57.730Z,49.30
2023-02-06T02:37:32.522Z,51.00
2023-02-06T02:40:07.957Z,49.20
2023-02-06T02:42:44.372Z,49.90
2023-02-06T02:45:20.546Z,49.70
2023-02-06T02:47:53.500Z,47.20
2023-02-06T02:50:22.427Z,49.00
2023-02-06T02:52:49.933Z,50.50
2023-02-06T02:55:23.480Z,48.70
2023-02-06T02:57:59.753Z,49.20
2023-02-06T03:00:28.227Z,49.70
2023-02-06T03:02:57.679Z,49.60
2023-02-06T03:05:27.187Z,48.30
2023-02-06T03:08:06.912Z,48.70
2023-02-06T03:10:40.473Z,47.10
2023-02-06T03:13:16.486Z,50.70
2023-02-06T03:15:50.106Z,50.00
2023-02-06T03:18:24.390Z,48.10
2023-02-06T03:20:52.486Z,51.70
2023-02-06T03:23:23.456Z,50.70
2023-02-06T03:25:54.571Z,51.70
2023-02-06T03:28:25.756Z,49.20
2023-02-06T03:30:58.057Z,51.00
2023-02-06T03:33:31.746Z,51.90
2023-02-06T03:35:59.520Z,51.10
2023-02-06T03:38:28.800Z,54.50
2023-02-06T03:40:58.170Z,54.90
2023-02-06T03:43:29.238Z,51.10
2023-02-06T03:46:01.288Z,53.10
2023-02-06T03:48:34.187Z,53.60
2023-02-06T03:51:04.512Z,52.30
2023-02-06T03:53:34.035Z,51.20
2023-02-06T03:56:06.898Z,49.70
2023-02-06T03:58:33.841Z,51.40
2023-02-06T04:01:01.456Z,50.10
2023-02-06T04:03:28.533Z,51.60
2023-02-06T04:05:55.467Z,52.30
2023-02-06T04:08:22.589Z,52.00
2023-02-06T04:10:49.487Z,49.70
2023-02-06T04:13:16.296Z,51.70
2023-02-06T04:15:43.389Z,51.90
2023-02-06T04:18:10.252Z,49.20
2023-02-06T04:20:40.934Z,51.40
2023-02-06T04:23:08.817Z,51.10
2023-02-06T04:25:36.288Z,49.90
2023-02-06T04:28:03.516Z,47.80
2023-02-06T04:30:30.597Z,48.90
2023-02-06T04:32:57.680Z,46.30
2023-02-06T04:35:24.491Z,46.50
2023-02-06T04:37:51.375Z,43.20
2023-02-06T04:40:18.764Z,42.50
2023-02-06T04:42:45.618Z,42.80
2023-02-06T04:45:12.931Z,45.90
2023-02-06T04:47:39.803Z,46.40
2023-02-06T04:50:07.437Z,43.90
2023-02-06T04:52:34.616Z,43.10
2023-02-06T04:55:01.470Z,43.90
2023-02-06T04:57:28.428Z,41.90
2023-02-06T04:59:55.447Z,42.70
2023-02-06T05:02:22.318Z,42.50
2023-02-06T05:04:49.523Z,42.70
2023-02-06T05:07:16.316Z,41.70
2023-02-06T05:09:43.195Z,42.80
2023-02-06T05:12:11.229Z,41.50
2023-02-06T05:14:39.690Z,42.80
2023-02-06T05:17:06.815Z,44.80
2023-02-06T05:19:33.648Z,45.30
2023-02-06T05:22:00.530Z,44.40
2023-02-06T05:24:27.374Z,45.40
2023-02-06T05:26:57.964Z,45.70
2023-02-06T05:29:24.894Z,48.10
2023-02-06T05:31:51.730Z,50.00
2023-02-06T05:34:18.526Z,49.30
2023-02-06T05:36:45.502Z,50.50
2023-02-06T05:39:12.322Z,50.60
2023-02-06T05:41:39.198Z,51.30
2023-02-06T05:44:06.532Z,49.90
2023-02-06T05:46:33.526Z,48.90
2023-02-06T05:49:01.217Z,48.10
2023-02-06T05:51:28.233Z,46.10
2023-02-06T05:53:55.407Z,43.70
2023-02-06T05:56:22.232Z,42.20
2023-02-06T05:58:49.326Z,42.70
2023-02-06T06:01:16.397Z,43.10
2023-02-06T06:03:43.221Z,44.10
2023-02-06T06:06:11.079Z,43.10
2023-02-06T06:08:38.223Z,44.10
2023-02-06T06:11:05.060Z,38.70
2023-02-06T06:13:32.445Z,41.70
2023-02-06T06:15:59.268Z,40.60
2023-02-06T06:18:26.170Z,41.40
2023-02-06T06:20:53.286Z,40.30
2023-02-06T06:23:20.312Z,40.90
2023-02-06T06:25:48.904Z,41.60
2023-02-06T06:28:16.471Z,44.10
2023-02-06T06:30:43.650Z,43.90
2023-02-06T06:33:10.866Z,41.50
2023-02-06T06:35:37.941Z,38.90
2023-02-06T06:38:04.966Z,40.60
2023-02-06T06:40:31.964Z,40.60
2023-02-06T06:42:58.920Z,37.70
2023-02-06T06:45:26.077Z,37.70
2023-02-06T06:47:53.091Z,31.60
2023-02-06T06:50:20.086Z,32.90
2023-02-06T06:52:47.040Z,34.20
2023-02-06T06:55:14.044Z,34.40
2023-02-06T06:57:41.113Z,33.70
2023-02-06T07:00:10.401Z,33.60
2023-02-06T07:02:37.381Z,37.10
2023-02-06T07:05:05.134Z,35.80
2023-02-06T07:07:32.155Z,35.20
2023-02-06T07:09:59.781Z,35.00
2023-02-06T07:12:26.871Z,35.90
2023-02-06T07:14:53.702Z,33.40
2023-02-06T07:17:20.557Z,33.60
2023-02-06T07:19:48.866Z,36.00
2023-02-06T07:22:15.834Z,36.10
2023-02-06T07:24:42.688Z,37.30
2023-02-06T07:27:09.811Z,37.60
2023-02-06T07:29:38.124Z,39.30
2023-02-06T07:32:05.665Z,36.60
2023-02-06T07:34:32.765Z,35.30
2023-02-06T07:37:00.901Z,35.40
2023-02-06T07:39:27.779Z,37.20
2023-02-06T07:41:54.575Z,35.80
2023-02-06T07:44:21.882Z,38.50
2023-02-06T07:46:49.121Z,34.60
2023-02-06T07:49:16.834Z,34.80
2023-02-06T07:51:43.879Z,34.30
2023-02-06T07:54:11.537Z,38.10
2023-02-06T07:56:38.566Z,36.40
2023-02-06T07:59:05.892Z,36.50
2023-02-06T08:01:33.174Z,37.70
2023-02-06T08:04:00.082Z,39.70
2023-02-06T08:06:27.647Z,37.70
2023-02-06T08:08:57.171Z,37.80
2023-02-06T08:11:26.175Z,36.50
2023-02-06T08:13:53.083Z,36.80
2023-02-06T08:16:22.188Z,38.00
2023-02-06T08:18:50.029Z,37.10
2023-02-06T08:21:21.008Z,36.90
2023-02-06T08:23:51.626Z,38.70
2023-02-06T08:26:19.932Z,37.40
2023-02-06T08:28:48.527Z,42.30
2023-02-06T08:31:18.046Z,40.20
2023-02-06T08:33:45.521Z,44.50
2023-02-06T08:36:14.196Z,40.70
2023-02-06T08:38:41.728Z,41.30
2023-02-06T08:41:18.723Z,39.00
2023-02-06T08:43:45.568Z,36.40
2023-02-06T08:46:12.641Z,40.70
2023-02-06T08:48:39.539Z,38.80
2023-02-06T08:51:08.908Z,40.30
2023-02-06T08:53:36.378Z,41.00
2023-02-06T08:56:05.336Z,40.40
2023-02-06T08:58:33.288Z,38.50
2023-02-06T09:01:06.632Z,38.60
2023-02-06T09:03:33.738Z,39.20
2023-02-06T09:06:10.292Z,38.10
2023-02-06T09:08:37.897Z,38.30
2023-02-06T09:11:10.150Z,38.60
2023-02-06T09:13:37.217Z,40.00
2023-02-06T09:16:04.559Z,39.60
2023-02-06T09:18:31.704Z,39.70
2023-02-06T09:21:10.338Z,39.00
2023-02-06T09:23:37.192Z,45.20
2023-02-06T09:26:04.509Z,45.20
2023-02-06T09:28:31.654Z,48.60
2023-02-06T09:30:58.670Z,44.10
2023-02-06T09:33:26.743Z,37.70
2023-02-06T09:36:03.855Z,39.00
2023-02-06T09:38:30.999Z,39.20
2023-02-06T09:40:59.940Z,38.30
2023-02-06T09:43:27.218Z,38.90
2023-02-06T09:46:00.158Z,39.60
2023-02-06T09:48:31.546Z,38.10
2023-02-06T09:51:08.963Z,35.60
2023-02-06T09:53:45.577Z,37.50
2023-02-06T09:56:21.604Z,37.20
2023-02-06T09:58:54.913Z,37.90
2023-02-06T10:01:28.229Z,37.90
2023-02-06T10:04:13.948Z,37.70
2023-02-06T10:06:46.871Z,37.20
2023-02-06T10:09:18.734Z,37.90
2023-02-06T10:11:50.624Z,37.40
2023-02-06T10:14:24.624Z,38.30
2023-02-06T10:16:54.940Z,39.30
2023-02-06T10:19:26.475Z,40.30
2023-02-06T10:22:02.858Z,39.10
2023-02-06T10:24:38.218Z,40.40
2023-02-06T10:27:14.390Z,41.50
2023-02-06T10:29:44.013Z,40.10
2023-02-06T10:32:28.044Z,40.90
2023-02-06T10:35:13.021Z,38.70
2023-02-06T10:37:59.489Z,38.60
2023-02-06T10:40:40.441Z,38.50
2023-02-06T10:43:18.347Z,37.60
2023-02-06T10:45:52.334Z,38.80
2023-02-06T10:48:29.351Z,38.00
2023-02-06T10:51:00.968Z,37.10
2023-02-06T10:53:32.025Z,39.00
2023-02-06T10:56:03.382Z,38.80
2023-02-06T10:58:36.250Z,38.60
2023-02-06T11:01:16.798Z,39.20
2023-02-06T11:03:57.074Z,39.00
2023-02-06T11:06:26.023Z,38.30
2023-02-06T11:08:53.179Z,38.90
2023-02-06T11:11:24.247Z,38.90
2023-02-06T11:13:53.815Z,39.60
2023-02-06T11:16:26.130Z,38.60
2023-02-06T11:18:55.011Z,40.10
2023-02-06T11:21:51.875Z,39.10
2023-02-06T11:24:21.397Z,37.70
2023-02-06T11:26:51.880Z,38.60
2023-02-06T11:29:21.427Z,38.60
2023-02-06T11:31:50.899Z,41.20
2023-02-06T11:34:25.895Z,42.10
2023-02-06T11:36:57.871Z,43.00
2023-02-06T11:39:30.344Z,42.20
2023-02-06T11:42:03.466Z,42.80
2023-02-06T11:44:36.758Z,44.70
2023-02-06T11:47:22.662Z,46.50
2023-02-06T11:49:49.995Z,44.50
2023-02-06T11:52:31.136Z,43.30
2023-02-06T11:55:02.154Z,45.10
2023-02-06T11:57:29.573Z,46.40
2023-02-06T11:59:58.141Z,51.30
2023-02-06T12:02:31.488Z,55.00
2023-02-06T12:05:07.979Z,57.20
2023-02-06T12:07:38.919Z,60.10
2023-02-06T12:10:16.404Z,57.20
2023-02-06T12:12:46.808Z,56.60
2023-02-06T12:15:45.610Z,58.00
2023-02-06T12:18:10.899Z,59.60
2023-02-06T12:20:44.209Z,63.40
2023-02-06T12:23:21.968Z,65.30
2023-02-06T12:25:54.269Z,64.00
2023-02-06T12:28:39.445Z,64.90
2023-02-06T12:31:12.373Z,66.50
2023-02-06T12:33:45.884Z,67.40
2023-02-06T12:36:18.828Z,66.80
2023-02-06T12:38:52.429Z,68.70
2023-02-06T12:41:33.771Z,66.60
2023-02-06T12:44:07.697Z,66.20
2023-02-06T12:46:34.963Z,67.40
2023-02-06T12:49:13.122Z,68.10
2023-02-06T12:51:46.748Z,65.20
2023-02-06T12:54:19.979Z,65.50
2023-02-06T12:56:51.034Z,63.80
2023-02-06T12:59:41.630Z,71.30
2023-02-06T13:02:26.287Z,70.90
2023-02-06T13:04:54.585Z,70.40
2023-02-06T13:11:02.835Z,71.70
2023-02-06T13:16:39.494Z,69.80
2023-02-06T13:20:33.310Z,76.20
2023-02-06T13:27:02.095Z,70.40
2023-02-06T13:32:30.179Z,73.10
2023-02-06T13:35:02.450Z,73.60
2023-02-06T13:37:37.403Z,75.30
2023-02-06T13:40:32.455Z,74.30
2023-02-06T13:43:04.072Z,72.20
2023-02-06T13:45:35.545Z,66.70
2023-02-06T13:48:38.942Z,73.20
2023-02-06T13:51:40.911Z,71.10
2023-02-06T13:54:31.917Z,70.80
2023-02-06T13:57:23.179Z,72.90
2023-02-06T13:59:55.650Z,76.70
2023-02-06T14:02:30.046Z,75.30
2023-02-06T14:04:58.300Z,76.30
2023-02-06T14:07:44.608Z,75.80
2023-02-06T14:10:35.490Z,75.00
2023-02-06T14:13:45.421Z,70.80
2023-02-06T14:16:25.762Z,74.50
2023-02-06T14:18:58.994Z,72.10
2023-02-06T14:21:38.740Z,71.90
2023-02-06T14:24:28.855Z,74.10
2023-02-06T14:27:06.322Z,74.30
2023-02-06T14:29:54.722Z,73.40
2023-02-06T14:32:40.222Z,75.90
2023-02-06T14:35:48.632Z,75.70
2023-02-06T14:38:51.364Z,78.10
2023-02-06T14:41:19.334Z,74.10
2023-02-06T14:43:49.498Z,76.20
2023-02-06T14:46:19.465Z,75.30
2023-02-06T14:48:51.869Z,77.80
2023-02-06T14:51:27.512Z,78.60
2023-02-06T14:53:57.553Z,79.80
2023-02-06T14:56:39.858Z,78.60
2023-02-06T14:59:18.780Z,81.50
2023-02-06T15:01:51.893Z,82.30
2023-02-06T15:04:24.955Z,82.00
2023-02-06T15:07:02.038Z,82.90
2023-02-06T15:09:33.033Z,80.80
2023-02-06T15:12:06.808Z,80.10
2023-02-06T15:14:37.233Z,83.00
2023-02-06T15:17:07.739Z,82.30
2023-02-06T15:19:36.913Z,84.00
2023-02-06T15:22:31.262Z,82.70
2023-02-06T15:25:14.702Z,83.10
2023-02-06T15:27:44.216Z,79.90
2023-02-06T15:30:22.420Z,81.00
2023-02-06T15:32:54.006Z,79.50
2023-02-06T15:35:27.474Z,77.00
2023-02-06T15:37:56.900Z,77.50
2023-02-06T15:40:31.550Z,75.90
2023-02-06T15:42:59.707Z,76.10
2023-02-06T15:45:34.594Z,78.50
2023-02-06T15:48:12.805Z,76.50
2023-02-06T15:50:40.553Z,77.20
2023-02-06T15:53:21.120Z,79.20
2023-02-06T15:56:13.376Z,76.80
2023-02-06T15:58:42.490Z,75.40
2023-02-06T16:01:20.341Z,76.40
2023-02-06T16:03:50.646Z,77.40
2023-02-06T16:06:19.103Z,76.20
2023-02-06T16:08:53.023Z,79.10
2023-02-06T16:11:37.690Z,78.40
2023-02-06T16:14:06.102Z,75.50
2023-02-06T16:16:33.474Z,75.80
2023-02-06T16:19:01.242Z,77.30
2023-02-06T16:21:31.016Z,75.60
2023-02-06T16:24:16.450Z,77.60
2023-02-06T16:26:48.133Z,74.50
2023-02-06T16:29:33.605Z,74.00
2023-02-06T16:32:03.269Z,75.60
2023-02-06T16:34:39.902Z,75.40
2023-02-06T16:37:12.245Z,74.30
2023-02-06T16:39:40.240Z,75.10
2023-02-06T16:42:07.238Z,74.90
2023-02-06T16:44:44.272Z,72.10
2023-02-06T16:47:15.656Z,72.00
2023-02-06T16:49:43.363Z,70.30
2023-02-06T16:52:16.832Z,63.50
2023-02-06T16:54:45.043Z,67.60
2023-02-06T16:57:18.627Z,64.80
2023-02-06T16:59:45.817Z,61.10
2023-02-06T17:02:35.885Z,64.40
2023-02-06T17:05:07.076Z,63.00
2023-02-06T17:07:42.230Z,64.10
2023-02-06T17:10:22.891Z,66.00
2023-02-06T17:13:03.334Z,65.30
2023-02-06T17:15:32.457Z,67.10
2023-02-06T17:18:00.807Z,66.30
2023-02-06T17:20:33.909Z,66.70
2023-02-06T17:23:09.028Z,70.90
2023-02-06T17:25:41.423Z,70.00
2023-02-06T17:28:13.858Z,69.60
2023-02-06T17:33:11.468Z,70.30
2023-02-06T17:35:48.341Z,73.90
2023-02-06T17:38:20.585Z,72.90
2023-02-06T17:40:50.200Z,74.60
2023-02-06T17:43:19.710Z,74.30
2023-02-06T17:45:49.402Z,73.70
2023-02-06T17:48:16.526Z,69.50
2023-02-06T17:50:43.825Z,71.50
2023-02-06T17:53:14.044Z,70.00
2023-02-06T17:55:40.973Z,71.70
2023-02-06T17:58:08.317Z,70.20
2023-02-06T18:00:35.935Z,71.40
2023-02-06T18:03:05.429Z,71.00
2023-02-06T18:05:36.518Z,67.60
2023-02-06T18:08:03.844Z,71.50
2023-02-06T18:10:30.795Z,72.10
2023-02-06T18:12:57.737Z,71.10
2023-02-06T18:15:25.031Z,75.10
2023-02-06T18:17:51.932Z,68.80
2023-02-06T18:20:19.943Z,74.50
2023-02-06T18:22:47.422Z,73.50
2023-02-06T18:25:16.111Z,74.20
2023-02-06T18:27:45.826Z,74.80
2023-02-06T18:30:15.594Z,75.70
2023-02-06T18:32:42.888Z,72.10
2023-02-06T18:35:11.192Z,72.80
2023-02-06T18:37:39.012Z,74.60
2023-02-06T18:40:07.130Z,74.20
2023-02-06T18:42:53.934Z,71.10
2023-02-06T18:45:21.877Z,72.20
2023-02-06T18:47:51.360Z,71.70
2023-02-06T18:50:20.364Z,69.60
2023-02-06T18:52:47.307Z,72.60
2023-02-06T18:55:14.297Z,73.80
2023-02-06T18:57:42.038Z,70.80
2023-02-06T19:00:12.152Z,68.20
2023-02-06T19:02:39.791Z,70.00
2023-02-06T19:05:07.148Z,69.50
2023-02-06T19:07:34.680Z,73.20
2023-02-06T19:10:03.520Z,72.40
2023-02-06T19:12:31.483Z,71.60
2023-02-06T19:15:34.363Z,71.20
2023-02-06T19:18:02.545Z,68.80
2023-02-06T19:20:29.600Z,67.20
2023-02-06T19:22:57.126Z,69.50
2023-02-06T19:25:24.611Z,70.80
2023-02-06T19:27:51.802Z,69.80
2023-02-06T19:30:39.494Z,69.90
2023-02-06T19:33:28.887Z,70.50
2023-02-06T19:36:18.364Z,66.70
2023-02-06T19:39:09.362Z,67.70
2023-02-06T19:41:36.671Z,67.40
2023-02-06T19:44:24.113Z,66.70
2023-02-06T19:55:41.353Z,64.80
2023-02-06T19:58:11.097Z,61.70
2023-02-06T20:00:39.400Z,68.20
2023-02-06T20:03:08.324Z,64.00
2023-02-06T20:05:54.869Z,62.20
2023-02-06T20:08:23.945Z,60.40
2023-02-06T20:10:51.472Z,63.90
2023-02-06T20:13:18.563Z,63.70
2023-02-06T20:15:48.257Z,61.80
2023-02-06T20:18:15.362Z,60.90
2023-02-06T20:20:47.154Z,63.90
2023-02-06T20:23:23.302Z,61.80
2023-02-06T20:25:50.651Z,60.90
2023-02-06T20:28:21.150Z,62.50
2023-02-06T20:30:48.283Z,63.00
2023-02-06T20:33:18.396Z,61.10
2023-02-06T20:38:20.602Z,64.00
2023-02-06T20:40:54.065Z,63.50
2023-02-06T20:43:21.356Z,71.70
2023-02-06T20:45:48.456Z,69.80
2023-02-06T20:48:15.484Z,68.80
2023-02-06T20:50:42.776Z,67.90
2023-02-06T20:53:19.882Z,65.20
2023-02-06T20:55:47.945Z,68.60
2023-02-06T20:58:14.914Z,71.10
2023-02-06T21:00:44.690Z,69.50
2023-02-06T21:03:14.388Z,65.50
2023-02-06T21:05:41.964Z,67.60
2023-02-06T21:08:09.393Z,70.30
2023-02-06T21:10:43.858Z,74.80
2023-02-06T21:13:14.189Z,72.40
2023-02-06T21:16:02.212Z,69.70
2023-02-06T21:18:31.854Z,72.30
2023-02-06T21:21:07.534Z,75.00
2023-02-06T21:23:38.384Z,70.10
2023-02-06T21:26:09.943Z,70.70
2023-02-06T21:28:38.057Z,69.60
2023-02-06T21:31:07.872Z,70.10
2023-02-06T21:33:38.862Z,67.40
2023-02-06T21:36:09.732Z,71.60
2023-02-06T21:38:37.476Z,69.40
2023-02-06T21:41:08.921Z,72.80
2023-02-06T21:43:36.465Z,72.50
2023-02-06T21:46:14.421Z,69.10
2023-02-06T21:48:44.410Z,71.30
2023-02-06T21:51:13.611Z,71.00
2023-02-06T21:53:43.697Z,71.80
2023-02-06T21:56:14.737Z,71.20
2023-02-06T21:58:42.256Z,70.20
2023-02-06T22:01:14.216Z,71.50
2023-02-06T22:03:41.143Z,73.10
2023-02-06T22:06:11.821Z,68.70
2023-02-06T22:08:40.191Z,66.50
2023-02-06T22:11:15.605Z,71.00
2023-02-06T22:13:44.190Z,64.90
2023-02-06T22:16:13.124Z,67.70
2023-02-06T22:18:43.525Z,68.10
2023-02-06T22:21:23.626Z,74.40
2023-02-06T22:24:01.371Z,71.70
2023-02-06T22:26:33.362Z,73.20
2023-02-06T22:29:01.666Z,74.70
2023-02-06T22:31:48.684Z,74.60
2023-02-06T22:34:19.643Z,73.30
2023-02-06T22:36:56.714Z,72.40
2023-02-06T22:39:24.322Z,72.60
2023-02-06T22:41:56.555Z,73.90
2023-02-06T22:44:24.279Z,73.40
2023-02-06T22:46:53.681Z,75.10
2023-02-06T22:49:21.523Z,73.20
2023-02-06T22:51:49.158Z,70.70
2023-02-06T22:54:26.321Z,67.50
2023-02-06T22:56:53.549Z,71.80
2023-02-06T22:59:22.738Z,70.10
2023-02-06T23:01:52.465Z,72.80
2023-02-06T23:04:21.560Z,75.10
2023-02-06T23:06:51.917Z,72.30
2023-02-06T23:09:31.644Z,70.40
2023-02-06T23:11:59.812Z,74.10
2023-02-06T23:14:38.059Z,68.90
2023-02-06T23:17:07.952Z,68.50
2023-02-06T23:19:35.347Z,69.20
2023-02-06T23:22:05.003Z,69.10
2023-02-06T23:24:32.413Z,69.10
2023-02-06T23:27:10.018Z,67.40
2023-02-06T23:29:39.426Z,67.90
2023-02-06T23:32:06.807Z,66.90
2023-02-06T23:34:39.099Z,69.20
2023-02-06T23:37:10.282Z,65.60
2023-02-06T23:39:40.872Z,65.30
2023-02-06T23:42:08.215Z,64.80
2023-02-06T23:44:46.536Z,62.90
2023-02-06T23:47:13.661Z,61.00
2023-02-06T23:49:43.643Z,63.70
2023-02-06T23:52:21.887Z,59.80
2023-02-06T23:54:49.034Z,59.00
2023-02-06T23:57:19.010Z,58.40
